Time;durP1;ratioP1;P1;durP2;ratioP2;P2;SDS_P1;SDS_P2;PMS_P1;PMS_P2;Temp;Humidity;BMP_temperature;BMP_pressure;BME280_temperature;BME280_humidity;BME280_pressure;Samples;Min_cycle;Max_cycle;Signal;HPM_P1;HPM_P2
2021/12/12 00:00:26;;;;;;;11.23;6.80;;;;;;;-4.97;94.18;101882.28;5034805;28;20029;-75
2021/12/12 00:03:00;;;;;;;11.20;6.15;;;;;;;-5.00;94.06;101888.78;5039810;28;20118;-75
2021/12/12 00:05:41;;;;;;;9.57;5.82;;;;;;;-5.00;94.08;101883.41;5049310;28;20120;-75
2021/12/12 00:08:07;;;;;;;10.70;6.50;;;;;;;-5.01;93.88;101888.94;5047840;28;20034;-75
2021/12/12 00:10:35;;;;;;;10.88;5.70;;;;;;;-5.01;93.97;101876.38;5043591;28;20058;-74
2021/12/12 00:13:07;;;;;;;9.85;6.05;;;;;;;-5.00;93.92;101874.56;5043358;28;20116;-75
2021/12/12 00:15:33;;;;;;;10.40;6.25;;;;;;;-5.00;93.80;101871.88;5047905;28;20052;-75
2021/12/12 00:17:59;;;;;;;9.32;5.93;;;;;;;-5.01;93.85;101860.31;5044461;28;20049;-75
2021/12/12 00:20:28;;;;;;;9.63;4.72;;;;;;;-5.01;93.77;101876.38;5051536;28;20128;-74
2021/12/12 00:22:58;;;;;;;8.30;5.30;;;;;;;-5.03;93.77;101865.00;5049462;28;20068;-75
2021/12/12 00:25:31;;;;;;;13.05;6.28;;;;;;;-5.05;93.73;101866.94;5035756;28;20424;-75
2021/12/12 00:27:58;;;;;;;11.50;5.80;;;;;;;-5.08;93.71;101867.25;5046556;28;20029;-75
2021/12/12 00:30:24;;;;;;;10.38;5.55;;;;;;;-5.10;93.79;101877.25;5036247;28;20126;-75
2021/12/12 00:32:51;;;;;;;9.90;5.55;;;;;;;-5.12;93.61;101873.91;5032324;28;20128;-75
2021/12/12 00:35:17;;;;;;;9.95;5.50;;;;;;;-5.13;93.70;101882.06;5042330;28;20038;-75
2021/12/12 00:37:44;;;;;;;11.07;7.13;;;;;;;-5.14;93.59;101880.41;5035858;28;20561;-75
2021/12/12 00:40:17;;;;;;;8.45;4.75;;;;;;;-5.14;93.66;101870.53;5057270;28;20041;-75
2021/12/12 00:42:43;;;;;;;9.65;5.60;;;;;;;-5.12;93.44;101865.03;5039829;28;20122;-75
2021/12/12 00:45:11;;;;;;;8.90;5.80;;;;;;;-5.13;93.50;101849.97;5038937;28;20065;-75
2021/12/12 00:47:37;;;;;;;11.00;6.00;;;;;;;-5.13;93.60;101863.34;5024543;28;20045;-75
2021/12/12 00:50:16;;;;;;;9.13;5.78;;;;;;;-5.12;93.48;101857.84;5022611;28;20502;-75
2021/12/12 00:52:44;;;;;;;8.23;4.13;;;;;;;-5.12;93.56;101847.13;5051131;28;20077;-75
2021/12/12 00:55:10;;;;;;;11.02;5.38;;;;;;;-5.11;93.46;101854.16;5041582;28;20124;-75
2021/12/12 00:57:36;;;;;;;7.45;4.63;;;;;;;-5.08;93.46;101847.69;5026093;28;20427;-75
2021/12/12 01:00:06;;;;;;;7.45;4.75;;;;;;;-5.06;93.40;101843.00;5036187;28;20033;-75
2021/12/12 01:02:32;;;;;;;8.90;5.80;;;;;;;-5.03;93.47;101845.38;5049022;28;20033;-75
2021/12/12 01:05:00;;;;;;;8.93;5.70;;;;;;;-5.00;93.35;101850.47;5024706;28;20041;-75
2021/12/12 01:07:29;;;;;;;7.80;4.60;;;;;;;-5.00;93.37;101842.44;5033359;28;20080;-74
2021/12/12 01:10:20;;;;;;;10.13;5.53;;;;;;;-4.99;93.36;101836.94;5053254;28;20098;-75
2021/12/12 01:12:46;;;;;;;9.32;5.55;;;;;;;-4.95;93.33;101834.78;5035433;28;20411;-75
2021/12/12 01:15:30;;;;;;;9.73;5.90;;;;;;;-4.94;93.28;101839.16;5039447;28;20043;-76
2021/12/12 01:18:00;;;;;;;8.00;4.95;;;;;;;-4.95;93.26;101832.94;5040747;28;20581;-76
2021/12/12 01:20:50;;;;;;;7.90;4.72;;;;;;;-4.95;93.29;101838.31;5031331;28;20081;-75
2021/12/12 01:23:22;;;;;;;8.30;4.78;;;;;;;-4.94;93.18;101839.16;5041260;28;20040;-75
2021/12/12 01:25:50;;;;;;;10.95;5.05;;;;;;;-4.95;93.21;101832.09;5041179;28;20138;-76
2021/12/12 01:28:21;;;;;;;7.50;4.80;;;;;;;-4.93;93.07;101840.81;5025736;28;20045;-76
2021/12/12 01:30:48;;;;;;;8.45;4.95;;;;;;;-4.95;93.13;101830.28;5034614;28;20076;-75
2021/12/12 01:33:21;;;;;;;10.30;5.63;;;;;;;-4.94;93.19;101828.44;5047403;28;20047;-76
2021/12/12 01:35:48;;;;;;;9.65;5.28;;;;;;;-4.90;93.11;101829.81;5031349;28;20033;-75
2021/12/12 01:40:58;;;;;;;9.65;4.88;;;;;;;-4.91;92.97;101831.66;5035113;28;20094;-75
2021/12/12 01:43:28;;;;;;;8.77;4.55;;;;;;;-4.90;92.91;101827.13;5038432;28;20389;-75
2021/12/12 01:46:05;;;;;;;9.32;4.90;;;;;;;-4.89;92.98;101828.81;5035386;28;20037;-75
2021/12/12 01:48:44;;;;;;;9.32;5.20;;;;;;;-4.88;93.14;101827.81;5045162;28;20040;-75
2021/12/12 01:51:11;;;;;;;10.35;4.50;;;;;;;-4.87;93.01;101827.66;5032858;28;20041;-75
2021/12/12 01:53:41;;;;;;;11.32;5.25;;;;;;;-4.83;92.98;101836.25;5035510;28;20561;-75
2021/12/12 01:56:17;;;;;;;8.48;5.28;;;;;;;-4.82;92.94;101832.59;5050436;28;20044;-75
2021/12/12 01:58:45;;;;;;;10.75;5.50;;;;;;;-4.82;93.01;101842.47;5042990;28;20071;-75
2021/12/12 02:01:15;;;;;;;7.97;4.93;;;;;;;-4.80;92.92;101835.97;5042223;28;20095;-74
2021/12/12 02:03:48;;;;;;;10.13;5.35;;;;;;;-4.80;92.87;101819.88;5037700;28;20525;-75
2021/12/12 02:06:17;;;;;;;9.43;5.15;;;;;;;-4.80;92.82;101833.28;5047031;28;20074;-75
2021/12/12 02:08:43;;;;;;;9.77;5.60;;;;;;;-4.80;92.94;101840.47;5049250;28;20033;-75
2021/12/12 02:11:17;;;;;;;7.22;4.70;;;;;;;-4.80;92.89;101832.44;5048880;28;20307;-75
2021/12/12 02:13:48;;;;;;;8.18;5.20;;;;;;;-4.79;92.83;101840.31;5033058;28;20578;-74
2021/12/12 02:16:14;;;;;;;10.57;4.90;;;;;;;-4.77;92.91;101840.16;5035096;28;20048;-74
2021/12/12 02:18:46;;;;;;;8.88;5.30;;;;;;;-4.79;92.98;101839.47;5030127;28;20042;-74
2021/12/12 02:21:37;;;;;;;9.70;5.20;;;;;;;-4.78;93.29;101839.31;5032684;28;20679;-74
2021/12/12 02:35:13;;;;;;;7.85;4.93;;;;;;;-4.66;92.83;101840.78;5042915;28;20510;-74
2021/12/12 02:37:40;;;;;;;8.93;4.85;;;;;;;-4.66;92.88;101835.44;5044985;28;20079;-74
2021/12/12 02:40:11;;;;;;;9.38;4.97;;;;;;;-4.64;92.70;101832.59;5050749;28;20048;-75
2021/12/12 02:42:38;;;;;;;10.07;5.90;;;;;;;-4.63;92.83;101831.59;5038801;28;20411;-75
2021/12/12 02:45:07;;;;;;;8.35;5.03;;;;;;;-4.60;92.81;101836.66;5034971;28;20040;-74
2021/12/12 02:47:34;;;;;;;;;;;;;;;-4.61;92.77;101830.44;5040264;28;20041;-74
2021/12/12 02:50:11;;;;;;;9.95;5.82;;;;;;;-4.60;92.93;101825.94;5030757;28;20023;-74
2021/12/12 02:52:38;;;;;;;8.85;5.22;;;;;;;-4.60;92.87;101821.41;5031289;28;20514;-74
2021/12/12 02:55:14;;;;;;;9.95;5.90;;;;;;;-4.61;92.78;101818.91;5032245;28;20111;-75
2021/12/12 02:57:40;;;;;;;8.88;5.03;;;;;;;-4.60;92.56;101812.53;5013170;28;20072;-74
2021/12/12 03:00:08;;;;;;;7.72;4.80;;;;;;;-4.60;92.52;101809.88;5040229;28;20438;-75
2021/12/12 03:02:42;;;;;;;8.10;5.13;;;;;;;-4.61;92.51;101810.88;5051199;28;20033;-74
2021/12/12 03:05:08;;;;;;;9.70;5.25;;;;;;;-4.63;92.57;101808.34;5045790;28;20060;-75
2021/12/12 03:07:34;;;;;;;10.57;5.90;;;;;;;-4.62;92.48;101807.34;5042325;28;20617;-74
2021/12/12 03:10:00;;;;;;;11.50;5.65;;;;;;;-4.63;92.37;101808.34;5033716;28;20541;-74
2021/12/12 03:12:33;;;;;;;10.48;5.22;;;;;;;-4.65;92.32;101810.34;5037530;28;20049;-74
2021/12/12 03:15:04;;;;;;;12.77;5.78;;;;;;;-4.65;92.33;101807.66;5047186;28;20037;-73
2021/12/12 03:17:29;;;;;;;9.82;6.05;;;;;;;-4.62;92.28;101809.19;5042129;28;20037;-74
2021/12/12 03:19:59;;;;;;;8.75;5.53;;;;;;;-4.62;92.30;101812.69;5063552;28;20032;-74
2021/12/12 03:22:26;;;;;;;7.82;5.55;;;;;;;-4.63;92.27;101804.81;5064127;28;20029;-75
2021/12/12 03:24:52;;;;;;;8.02;5.18;;;;;;;-4.60;92.25;101805.34;5058165;28;20599;-75
2021/12/12 03:27:20;;;;;;;8.88;6.00;;;;;;;-4.57;92.20;101804.19;5052001;28;20033;-74
2021/12/12 03:29:46;;;;;;;8.15;5.57;;;;;;;-4.55;92.24;101808.41;5033859;28;20527;-74
2021/12/12 03:32:15;;;;;;;12.15;6.15;;;;;;;-4.52;92.12;101798.38;5046389;28;20032;-74
2021/12/12 03:34:52;;;;;;;8.25;4.70;;;;;;;-4.51;92.14;101802.72;5035996;28;20033;-74
2021/12/12 03:37:20;;;;;;;10.43;5.63;;;;;;;-4.51;91.99;101813.44;5044585;28;20071;-75
2021/12/12 03:39:48;;;;;;;7.97;5.45;;;;;;;-4.52;91.85;101817.97;5036555;28;20091;-75
2021/12/12 03:42:17;;;;;;;8.82;5.03;;;;;;;-4.50;92.00;101807.13;5054959;28;20040;-74
2021/12/12 03:44:44;;;;;;;7.93;5.60;;;;;;;-4.46;92.06;101806.66;5049994;28;20033;-74
2021/12/12 03:47:35;;;;;;;9.60;5.68;;;;;;;-4.46;91.88;101809.34;5042883;28;20491;-74
2021/12/12 03:50:06;;;;;;;9.82;5.65;;;;;;;-4.47;91.87;101810.31;5037924;28;20044;-73
2021/12/12 03:52:32;;;;;;;9.05;5.88;;;;;;;-4.50;91.83;101813.31;5065040;28;20494;-74
2021/12/12 03:55:00;;;;;;;9.98;5.93;;;;;;;-4.51;91.88;101819.69;5050753;28;20041;-74
2021/12/12 03:57:27;;;;;;;8.25;5.43;;;;;;;-4.50;91.88;101807.13;5039033;28;20049;-74
2021/12/12 03:59:53;;;;;;;8.82;5.25;;;;;;;-4.49;91.90;101803.44;5052433;28;20037;-73
2021/12/12 04:02:18;;;;;;;11.32;6.20;;;;;;;-4.46;91.99;101811.16;5040980;28;20033;-74
2021/12/12 04:04:46;;;;;;;11.02;5.82;;;;;;;-4.46;92.07;101800.44;5055350;28;20095;-74
2021/12/12 04:07:25;;;;;;;9.00;5.50;;;;;;;-4.46;91.91;101800.44;5042401;28;20099;-74
2021/12/12 04:09:51;;;;;;;11.70;5.97;;;;;;;-4.45;91.90;101796.78;5058698;28;20050;-75
2021/12/12 04:12:18;;;;;;;9.82;5.93;;;;;;;-4.46;91.85;101800.44;5050748;28;20032;-75
2021/12/12 04:14:45;;;;;;;10.68;5.82;;;;;;;-4.48;91.84;101799.78;5042323;28;20123;-74
2021/12/12 04:17:15;;;;;;;10.02;6.53;;;;;;;-4.52;91.94;101795.69;5044652;28;20036;-74
2021/12/12 04:19:43;;;;;;;11.52;6.75;;;;;;;-4.57;91.73;101794.31;5048793;28;20047;-75
2021/12/12 04:22:08;;;;;;;11.52;5.88;;;;;;;-4.60;91.58;101800.00;5063484;28;20041;-75
2021/12/12 04:24:40;;;;;;;10.80;5.70;;;;;;;-4.64;91.34;101803.97;5037729;28;20910;-75
2021/12/12 04:27:07;;;;;;;11.40;5.68;;;;;;;-4.65;91.24;101796.94;5044353;28;20033;-74
2021/12/12 04:29:36;;;;;;;10.27;6.43;;;;;;;-4.63;91.28;101791.44;5047606;28;20033;-76
2021/12/12 04:32:06;;;;;;;12.38;6.38;;;;;;;-4.67;91.42;101796.25;5040421;28;20449;-74
2021/12/12 04:34:34;;;;;;;11.48;6.95;;;;;;;-4.68;91.30;101796.41;5061913;28;20511;-75
2021/12/12 04:37:02;;;;;;;12.60;6.15;;;;;;;-4.72;91.23;101797.69;5046460;28;20047;-74
2021/12/12 04:39:30;;;;;;;12.85;5.93;;;;;;;-4.73;91.21;101804.03;5053367;28;20059;-73
2021/12/12 04:42:13;;;;;;;8.25;5.93;;;;;;;-4.77;91.32;101798.16;5069170;28;20037;-74
2021/12/12 04:44:41;;;;;;;9.73;5.97;;;;;;;-4.80;91.21;101806.50;5049910;28;20040;-75
2021/12/12 04:50:35;;;;;;;10.40;6.32;;;;;;;-4.83;91.35;101808.66;5049030;28;20047;-75
2021/12/12 04:53:07;;;;;;;11.40;6.07;;;;;;;-4.83;91.23;101805.97;5033530;28;20033;-75
2021/12/12 04:55:55;;;;;;;11.63;6.47;;;;;;;-4.83;91.32;101812.16;5058301;28;20045;-75
2021/12/12 04:58:43;;;;;;;12.75;5.85;;;;;;;-4.82;91.31;101805.81;5039900;28;20029;-75
2021/12/12 05:01:15;;;;;;;9.73;6.23;;;;;;;-4.82;91.22;101805.81;5033529;28;20052;-75
2021/12/12 05:04:22;;;;;;;12.07;5.97;;;;;;;-4.77;91.24;101802.69;5052551;28;20513;-75
2021/12/12 05:07:10;;;;;;;13.02;6.32;;;;;;;-4.76;91.29;101799.00;5035854;28;20555;-76
2021/12/12 05:09:46;;;;;;;15.00;6.18;;;;;;;-4.74;91.26;101797.00;5061317;28;20048;-75
2021/12/12 05:12:22;;;;;;;10.15;5.82;;;;;;;-4.75;91.39;101790.81;5066054;28;20033;-75
2021/12/12 05:14:54;;;;;;;10.60;5.97;;;;;;;-4.73;91.27;101796.84;5058422;28;20067;-75
2021/12/12 05:17:43;;;;;;;10.20;6.20;;;;;;;-4.72;91.36;101801.22;5044553;28;20600;-74
2021/12/12 05:20:14;;;;;;;11.93;6.28;;;;;;;-4.69;91.49;101800.06;5036677;28;20041;-75
2021/12/12 05:22:44;;;;;;;8.88;6.00;;;;;;;-4.68;91.21;101802.63;5032534;28;20445;-75
2021/12/12 05:25:17;;;;;;;13.23;6.45;;;;;;;-4.67;91.40;101803.47;5047022;28;20123;-75
2021/12/12 05:27:45;;;;;;;13.57;6.60;;;;;;;-4.67;91.15;101803.47;5049895;28;20037;-75
2021/12/12 05:30:16;;;;;;;9.27;6.05;;;;;;;-4.69;91.10;101808.09;5050809;28;20043;-75
2021/12/12 05:32:42;;;;;;;12.10;6.70;;;;;;;-4.69;91.09;101806.25;5043090;28;20144;-75
2021/12/12 05:35:11;;;;;;;13.30;6.13;;;;;;;-4.68;91.04;101802.63;5044606;28;20044;-75
2021/12/12 05:37:37;;;;;;;10.50;5.50;;;;;;;-4.67;91.35;101800.78;5051334;28;20043;-75
2021/12/12 05:40:06;;;;;;;10.05;5.97;;;;;;;-4.65;91.36;101810.34;5063938;28;20132;-75
2021/12/12 05:42:32;;;;;;;10.10;5.97;;;;;;;-4.67;91.57;101806.13;5033657;28;20038;-75
2021/12/12 05:44:59;;;;;;;10.60;6.13;;;;;;;-4.67;91.43;101804.28;5053184;28;20051;-75
2021/12/12 05:47:26;;;;;;;10.88;6.18;;;;;;;-4.68;91.64;101810.66;5045894;28;20392;-75
2021/12/12 05:49:52;;;;;;;10.70;6.70;;;;;;;-4.70;91.60;101815.28;5066584;28;20052;-75
2021/12/12 05:52:20;;;;;;;10.15;6.07;;;;;;;-4.70;91.48;101815.28;5054153;28;20123;-75
2021/12/12 05:54:48;;;;;;;12.80;6.88;;;;;;;-4.70;91.53;101809.09;5061986;28;20076;-74
2021/12/12 05:57:19;;;;;;;9.35;5.45;;;;;;;-4.70;91.44;101815.28;5045412;28;20064;-74
2021/12/12 05:59:45;;;;;;;11.68;6.40;;;;;;;-4.69;91.31;101803.56;5066041;28;20517;-74
2021/12/12 06:02:11;;;;;;;11.73;6.55;;;;;;;-4.69;91.24;101808.94;5027380;28;20032;-75
2021/12/12 06:04:38;;;;;;;11.73;5.82;;;;;;;-4.69;91.45;101816.97;5059511;28;20032;-75
2021/12/12 06:07:07;;;;;;;12.05;6.60;;;;;;;-4.71;91.41;101813.59;5041361;28;20036;-75
2021/12/12 06:09:34;;;;;;;12.93;6.90;;;;;;;-4.68;91.16;101807.13;5021646;28;20582;-75
2021/12/12 06:12:01;;;;;;;10.65;6.30;;;;;;;-4.67;91.30;101819.53;5037526;28;20040;-75
2021/12/12 06:14:28;;;;;;;14.35;6.30;;;;;;;-4.72;91.41;101817.28;5064408;28;20120;-75
2021/12/12 06:16:54;;;;;;;10.82;6.03;;;;;;;-4.71;91.50;101810.09;5053687;28;20041;-75
2021/12/12 06:19:22;;;;;;;10.45;5.85;;;;;;;-4.72;91.48;101814.59;5031844;28;20091;-74
2021/12/12 06:21:58;;;;;;;10.80;6.65;;;;;;;-4.74;91.41;101819.28;5065524;28;20036;-74
2021/12/12 06:24:26;;;;;;;10.85;5.63;;;;;;;-4.75;91.09;101827.47;5051309;28;20037;-74
2021/12/12 06:26:53;;;;;;;9.27;5.53;;;;;;;-4.77;91.16;101824.94;5040578;28;20041;-75
2021/12/12 06:29:19;;;;;;;10.10;6.05;;;;;;;-4.79;91.08;101824.25;5053490;28;20415;-75
2021/12/12 06:31:47;;;;;;;11.27;5.82;;;;;;;-4.76;91.18;101825.78;5054174;28;20127;-74
2021/12/12 06:34:13;;;;;;;10.80;5.65;;;;;;;-4.76;91.14;101831.97;5058178;28;20040;-76
2021/12/12 06:36:39;;;;;;;10.25;5.95;;;;;;;-4.73;91.02;101826.31;5029666;28;20033;-76
2021/12/12 06:39:07;;;;;;;13.93;6.40;;;;;;;-4.75;90.97;101817.59;5045164;28;20044;-76
2021/12/12 06:41:35;;;;;;;11.48;6.38;;;;;;;-4.77;91.04;101822.25;5036340;28;20469;-73
2021/12/12 06:44:05;;;;;;;9.70;5.95;;;;;;;-4.77;91.26;101827.63;5037667;28;20033;-75
2021/12/12 06:46:32;;;;;;;11.57;6.18;;;;;;;-4.77;91.42;101840.16;5029131;28;20211;-74
2021/12/12 06:48:58;;;;;;;12.55;6.75;;;;;;;-4.78;91.29;101833.97;5052334;28;20533;-75
2021/12/12 06:51:26;;;;;;;13.13;6.85;;;;;;;-4.82;91.17;101840.63;5039596;28;20132;-75
2021/12/12 06:53:52;;;;;;;9.00;4.07;;;;;;;-4.86;91.25;101840.09;5052513;28;20076;-75
2021/12/12 06:56:21;;;;;;;5.80;3.80;;;;;;;-4.86;91.41;101831.19;5037684;28;20059;-75
2021/12/12 06:58:48;;;;;;;5.90;3.15;;;;;;;-4.86;91.36;101832.06;5059222;28;20040;-75
2021/12/12 07:01:19;;;;;;;10.02;3.63;;;;;;;-4.87;91.42;101826.81;5047731;28;20392;-75
2021/12/12 07:03:46;;;;;;;7.55;3.25;;;;;;;-4.91;91.48;101831.66;5064564;28;20537;-74
2021/12/12 07:06:15;;;;;;;5.38;3.15;;;;;;;-4.93;91.45;101825.59;5041977;28;20068;-74
2021/12/12 07:08:41;;;;;;;8.85;4.57;;;;;;;-4.96;91.42;101820.56;5046640;28;20814;-75
2021/12/12 07:11:07;;;;;;;4.35;2.53;;;;;;;-4.99;91.33;101825.38;5043127;28;20099;-75
2021/12/12 07:13:33;;;;;;;9.23;4.65;;;;;;;-5.00;91.25;101829.88;5028667;28;20067;-75
2021/12/12 07:16:01;;;;;;;8.18;4.22;;;;;;;-5.03;91.17;101824.84;5056530;28;20457;-74
2021/12/12 07:18:29;;;;;;;6.22;3.85;;;;;;;-5.04;91.16;101827.63;5070062;28;20038;-74
2021/12/12 07:20:58;;;;;;;6.22;3.22;;;;;;;-5.06;91.18;101834.97;5041525;28;20053;-74
2021/12/12 07:23:24;;;;;;;7.57;3.85;;;;;;;-5.07;91.30;101831.47;5030371;28;20559;-73
2021/12/12 07:25:51;;;;;;;6.28;3.53;;;;;;;-5.07;91.27;101834.13;5056985;28;20140;-74
2021/12/12 07:28:17;;;;;;;4.90;2.08;;;;;;;-5.09;91.28;101837.97;5063447;28;20041;-74
2021/12/12 07:30:43;;;;;;;4.15;2.60;;;;;;;-5.09;91.86;101835.28;5046200;28;20057;-74
2021/12/12 07:33:10;;;;;;;10.60;4.47;;;;;;;-5.09;91.55;101833.44;5055431;28;20052;-74
2021/12/12 07:35:37;;;;;;;7.85;3.47;;;;;;;-5.08;91.32;101826.28;5044343;28;20061;-74
2021/12/12 07:38:07;;;;;;;8.38;4.88;;;;;;;-5.10;91.57;101829.09;5062848;28;20037;-75
2021/12/12 07:40:33;;;;;;;10.18;4.53;;;;;;;-5.11;91.59;101824.72;5040198;28;20503;-75
2021/12/12 07:42:59;;;;;;;5.50;2.80;;;;;;;-5.10;91.64;101822.91;5049719;28;20040;-74
2021/12/12 07:45:25;;;;;;;5.07;2.83;;;;;;;-5.09;91.52;101825.44;5050609;28;20037;-75
2021/12/12 07:47:52;;;;;;;7.13;3.50;;;;;;;-5.12;91.58;101831.09;5045830;28;20067;-74
2021/12/12 07:50:20;;;;;;;6.28;2.72;;;;;;;-5.12;91.72;101819.53;5057504;28;20486;-75
2021/12/12 07:52:47;;;;;;;6.65;3.22;;;;;;;-5.14;91.70;101822.38;5043893;28;20402;-75
2021/12/12 07:55:13;;;;;;;14.75;5.57;;;;;;;-5.17;91.85;101828.03;5032872;28;20041;-75
2021/12/12 07:57:39;;;;;;;6.35;3.92;;;;;;;-5.18;91.69;101826.34;5056982;28;20499;-76
2021/12/12 08:00:13;;;;;;;6.03;2.65;;;;;;;-5.17;91.73;101828.03;5058252;28;20071;-75
2021/12/12 08:02:41;;;;;;;8.48;4.78;;;;;;;-5.18;91.76;101831.69;5040595;28;20045;-76
2021/12/12 08:05:07;;;;;;;14.73;5.70;;;;;;;-5.19;91.73;101827.34;5047371;28;20041;-75
2021/12/12 08:07:34;;;;;;;3.03;2.47;;;;;;;-5.17;91.75;101822.66;5051727;28;20033;-75
2021/12/12 08:10:00;;;;;;;11.25;3.70;;;;;;;-5.17;91.67;101823.50;5044914;28;20139;-75
2021/12/12 08:12:28;;;;;;;8.48;3.90;;;;;;;-5.19;91.91;101825.50;5060539;28;20135;-74
2021/12/12 08:14:55;;;;;;;6.55;4.15;;;;;;;-5.18;91.94;101815.63;5042784;28;20037;-75
2021/12/12 08:17:21;;;;;;;12.57;4.57;;;;;;;-5.19;91.81;101822.81;5051106;28;20490;-74
2021/12/12 08:19:51;;;;;;;7.55;4.30;;;;;;;-5.20;91.81;101821.13;5043757;28;20064;-75
2021/12/12 08:22:17;;;;;;;10.95;4.43;;;;;;;-5.21;92.01;101811.44;5052365;28;20115;-74
2021/12/12 08:24:43;;;;;;;7.50;2.92;;;;;;;-5.20;92.07;101821.13;5062770;28;20029;-74
2021/12/12 08:27:10;;;;;;;9.63;4.53;;;;;;;-5.18;91.98;101800.44;5043355;28;20086;-74
2021/12/12 08:29:37;;;;;;;11.90;3.75;;;;;;;-5.19;92.03;101812.13;5055186;28;20105;-74
2021/12/12 08:32:05;;;;;;;9.40;4.93;;;;;;;-5.19;92.09;101804.09;5050170;28;20033;-74
2021/12/12 08:34:31;;;;;;;8.18;4.60;;;;;;;-5.17;92.12;101815.47;5063938;28;20523;-74
2021/12/12 08:37:00;;;;;;;11.20;5.30;;;;;;;-5.16;92.15;101810.97;5063587;28;20074;-74
2021/12/12 08:39:27;;;;;;;14.98;5.55;;;;;;;-5.19;92.08;101813.97;5015272;28;20038;-74
2021/12/12 08:41:55;;;;;;;11.90;5.65;;;;;;;-5.20;92.21;101809.59;5051791;28;20489;-73
2021/12/12 08:44:21;;;;;;;14.05;5.18;;;;;;;-5.18;92.08;101816.47;5058162;28;20037;-74
2021/12/12 08:46:51;;;;;;;7.20;2.95;;;;;;;-5.17;92.17;101814.66;5061952;28;20517;-74
2021/12/12 08:49:20;;;;;;;6.85;4.32;;;;;;;-5.18;92.23;101811.13;5067365;28;20130;-75
2021/12/12 08:51:53;;;;;;;;;;;;;;;-5.16;92.21;101814.50;5047542;28;20120;-74
2021/12/12 08:54:26;;;;;;;10.95;4.97;;;;;;;-5.18;92.10;101816.47;5066862;28;19955;-75
2021/12/12 08:57:05;;;;;;;15.30;7.65;;;;;;;-5.22;92.16;101809.72;5062718;28;20079;-75
2021/12/12 08:59:33;;;;;;;11.60;5.22;;;;;;;-5.22;92.24;101815.06;5056615;28;20044;-75
2021/12/12 09:02:04;;;;;;;5.80;3.37;;;;;;;-5.20;92.14;101809.59;5022463;28;20032;-74
2021/12/12 09:04:33;;;;;;;14.57;5.40;;;;;;;-5.14;92.14;101816.16;5059801;28;20128;-74
2021/12/12 09:07:04;;;;;;;7.63;4.15;;;;;;;-5.13;92.33;101817.84;5062984;28;20043;-75
2021/12/12 09:09:35;;;;;;;13.77;5.60;;;;;;;-5.13;92.31;101816.03;5054850;28;20143;-75
2021/12/12 09:12:09;;;;;;;14.55;5.95;;;;;;;-5.16;92.54;101809.13;5038508;28;20127;-75
2021/12/12 09:14:58;;;;;;;4.32;3.30;;;;;;;-5.13;92.48;101817.84;5049424;28;20032;-75
2021/12/12 09:17:37;;;;;;;9.07;5.45;;;;;;;-5.12;92.56;101814.19;5033254;28;20033;-75
2021/12/12 09:20:15;;;;;;;11.65;5.95;;;;;;;-5.12;92.44;101812.34;5034451;28;20032;-74
2021/12/12 09:22:56;;;;;;;12.00;5.47;;;;;;;-5.09;92.51;101797.81;5062934;28;20419;-75
2021/12/12 09:25:42;;;;;;;8.10;4.72;;;;;;;-5.08;92.62;101804.84;5065739;28;20044;-75
2021/12/12 09:28:29;;;;;;;9.50;4.88;;;;;;;-5.11;92.59;101811.34;5024327;28;20518;-75
2021/12/12 09:30:58;;;;;;;5.75;3.40;;;;;;;-5.12;92.62;101798.13;5059727;28;20037;-74
2021/12/12 09:33:28;;;;;;;12.52;5.70;;;;;;;-5.13;92.73;101797.28;5049611;28;20079;-74
2021/12/12 09:35:53;;;;;;;;;;;;;;;-5.12;92.81;101793.63;5052141;28;20049;-74
2021/12/12 09:38:37;;;;;;;7.45;4.00;;;;;;;-5.12;92.77;101795.44;5057409;28;20441;-75
2021/12/12 09:41:45;;;;;;;9.85;4.38;;;;;;;-5.16;92.86;101792.25;5059529;28;20076;-74
2021/12/12 09:44:21;;;;;;;10.43;3.97;;;;;;;-5.16;92.86;101786.88;5035803;28;20556;-74
2021/12/12 09:47:00;;;;;;;9.02;4.57;;;;;;;-5.16;92.88;101782.38;5037237;28;20179;-74
2021/12/12 09:53:03;;;;;;;8.80;6.03;;;;;;;-5.18;93.04;101788.88;5038411;28;20041;-73
2021/12/12 09:55:45;;;;;;;5.03;3.63;;;;;;;-5.19;93.15;101780.00;5034947;28;20039;-72
2021/12/12 09:58:29;;;;;;;11.57;5.45;;;;;;;-5.19;93.03;101782.69;5046752;28;20037;-73
2021/12/12 10:01:01;;;;;;;5.45;2.38;;;;;;;-5.21;93.13;101765.94;5049151;28;20037;-72
2021/12/12 10:03:39;;;;;;;11.38;6.00;;;;;;;-5.19;92.92;101776.50;5062579;28;20102;-73
2021/12/12 10:06:20;;;;;;;8.02;4.82;;;;;;;-5.18;93.12;101768.31;5040273;28;20043;-72
2021/12/12 10:09:01;;;;;;;15.43;6.65;;;;;;;-5.18;93.20;101773.66;5056428;28;20059;-72
2021/12/12 10:11:39;;;;;;;9.15;5.95;;;;;;;-5.21;93.11;101779.31;5044926;28;20064;-72
2021/12/12 10:14:16;;;;;;;13.13;5.93;;;;;;;-5.17;93.16;101775.34;5039899;28;20040;-73
2021/12/12 10:17:03;;;;;;;4.93;2.88;;;;;;;-5.14;93.09;101776.03;5048529;28;20052;-72
2021/12/12 10:19:36;;;;;;;10.13;5.57;;;;;;;-5.09;93.14;101776.41;5061051;28;20048;-72
2021/12/12 10:22:01;;;;;;;11.05;5.03;;;;;;;-5.09;93.21;101768.38;5042786;28;20110;-74
2021/12/12 10:24:31;;;;;;;12.25;6.82;;;;;;;-5.09;93.25;101771.06;5053773;28;20036;-73
2021/12/12 10:27:08;;;;;;;13.82;6.30;;;;;;;-5.06;93.25;101771.59;5032317;28;20037;-74
2021/12/12 10:29:42;;;;;;;12.25;4.75;;;;;;;-5.04;93.26;101768.75;5061067;28;20074;-74
2021/12/12 10:32:14;;;;;;;10.02;5.32;;;;;;;-5.00;93.24;101768.34;5039397;28;20668;-74
2021/12/12 10:34:47;;;;;;;7.05;3.20;;;;;;;-5.00;93.31;101778.19;5035556;28;20045;-73
2021/12/12 10:37:23;;;;;;;13.20;5.80;;;;;;;-5.03;93.23;101776.66;5047801;28;20495;-74
2021/12/12 10:40:12;;;;;;;14.82;5.35;;;;;;;-5.02;93.34;101773.00;5047421;28;20090;-74
2021/12/12 10:42:45;;;;;;;18.15;8.05;;;;;;;-5.07;93.31;101779.78;5036731;28;20451;-71
2021/12/12 10:45:35;;;;;;;11.93;5.47;;;;;;;-5.15;93.26;101777.88;5052139;28;20084;-71
2021/12/12 10:48:05;;;;;;;8.93;5.20;;;;;;;-5.20;93.27;101781.00;5045781;28;20091;-71
2021/12/12 10:50:50;;;;;;;12.05;6.00;;;;;;;-5.21;93.26;101789.16;5060615;28;20056;-73
2021/12/12 10:53:27;;;;;;;15.88;6.30;;;;;;;-5.22;93.14;101790.16;5058317;28;20044;-73
2021/12/12 10:55:59;;;;;;;20.70;11.57;;;;;;;-5.22;93.19;101793.66;5053001;28;20087;-73
2021/12/12 10:58:39;;;;;;;17.55;7.88;;;;;;;-5.25;93.31;101785.09;5044820;28;20119;-72
2021/12/12 11:01:12;;;;;;;7.60;4.50;;;;;;;-5.27;93.37;101784.41;5039710;28;20042;-70
2021/12/12 11:04:01;;;;;;;15.07;6.85;;;;;;;-5.30;93.32;101792.75;5032255;28;20033;-72
2021/12/12 11:06:32;;;;;;;11.90;6.57;;;;;;;-5.34;93.22;101786.00;5050083;28;20059;-73
2021/12/12 11:09:00;;;;;;;12.32;6.72;;;;;;;-5.38;93.21;101785.47;5042838;28;20037;-73
2021/12/12 11:11:30;;;;;;;11.10;6.20;;;;;;;-5.39;93.19;101778.41;5038026;28;20522;-73
2021/12/12 11:14:10;;;;;;;15.93;6.65;;;;;;;-5.40;93.13;101787.44;5040787;28;20052;-72
2021/12/12 11:16:47;;;;;;;16.80;6.68;;;;;;;-5.38;93.04;101779.25;5035318;28;20037;-73
2021/12/12 11:19:17;;;;;;;13.77;4.88;;;;;;;-5.37;93.11;101770.28;5038178;28;20037;-72
2021/12/12 11:22:16;;;;;;;10.73;5.53;;;;;;;-5.36;93.11;101769.28;5041134;28;20060;-72
2021/12/12 11:24:57;;;;;;;13.52;6.97;;;;;;;-5.30;92.97;101771.34;5049288;28;20139;-72
2021/12/12 11:28:19;;;;;;;16.17;7.10;;;;;;;-5.30;93.03;101768.66;5055182;28;20045;-73
2021/12/12 11:30:49;;;;;;;16.23;7.00;;;;;;;-5.26;93.02;101768.22;5065856;28;20533;-73
2021/12/12 11:33:17;;;;;;;15.73;7.10;;;;;;;-5.27;92.98;101771.88;5068978;28;20050;-73
2021/12/12 11:35:47;;;;;;;11.80;6.30;;;;;;;-5.27;92.91;101761.19;5055924;28;20041;-74
2021/12/12 11:38:27;;;;;;;7.40;3.97;;;;;;;-5.25;93.12;101769.06;5069237;28;20044;-72
2021/12/12 11:40:58;;;;;;;8.13;4.57;;;;;;;-5.24;93.06;101763.53;5064064;28;20041;-73
2021/12/12 11:43:42;;;;;;;16.08;6.47;;;;;;;-5.25;93.02;101761.88;5058678;28;20552;-74
2021/12/12 11:46:29;;;;;;;6.30;5.03;;;;;;;-5.25;93.00;101758.34;5057755;28;20067;-74
2021/12/12 11:49:00;;;;;;;15.35;7.82;;;;;;;-5.25;93.07;101748.50;5052161;28;20206;-74
2021/12/12 11:51:44;;;;;;;15.02;6.55;;;;;;;-5.29;92.86;101739.09;5034809;28;20041;-73
2021/12/12 11:54:17;;;;;;;12.10;6.55;;;;;;;-5.31;92.84;101749.09;5043204;28;20071;-74
2021/12/12 11:56:51;;;;;;;11.27;5.68;;;;;;;-5.29;92.79;101749.78;5051752;28;20032;-72
2021/12/12 11:59:22;;;;;;;13.43;4.70;;;;;;;-5.29;92.69;101755.13;5037180;28;20120;-73
2021/12/12 12:01:51;;;;;;;9.65;5.68;;;;;;;-5.27;92.70;101766.53;5056260;28;20064;-73